San Francisco, California
Traffic Map
Current Weather Conditions
San Francisco, California
Scattered Clouds
Scattered Clouds
18°
Feels Like: 18°
Wind Chill: 18° Ceiling: Unl
Heat Index: 18° Visibility: 10mi
Dew Point: 15° Wind: 6mph
Humidity: 81% Direction: 190° (S)
Pressure: 29.85in Gusts: 0mph
Raw Report DataKSFO 200556Z 19005KT 10SM FEW009 SCT014 18/15 A2985 RMK AO2 SLP108 T01830150 10233 20183 50009 $
Traffic Incident Summary
Active as of:
Severity:
Category:
InformationThere was an issue retrieving the traffic information for this location. Please try a different location or try again shortly.
Advertisements
Track Severe Weather on mobile